METAR Data
IDs: Format: Raw Decoded Include TAF

Data at: 1557 UTC 26 Sep 2021

KRZL 261535Z AUTO 22009G14KT 10SM CLR 21/06 A3005 RMK AO2